Time;durP1;ratioP1;P1;durP2;ratioP2;P2;SDS_P1;SDS_P2;PMS_P1;PMS_P2;Temp;Humidity;BMP_temperature;BMP_pressure;BME280_temperature;BME280_humidity;BME280_pressure;Samples;Min_cycle;Max_cycle;Signal;HPM_P1;HPM_P2
2021/06/16 00:00:09;;;;;;;4.07;1.40;;;11.40;99.90;;;;;;5035735;28;20049;-45
2021/06/16 00:02:35;;;;;;;10.57;1.50;;;11.40;99.90;;;;;;5035868;28;20021;-48
2021/06/16 00:05:01;;;;;;;2.03;1.10;;;11.30;99.90;;;;;;5035845;28;20100;-49
2021/06/16 00:07:26;;;;;;;1.88;1.00;;;11.30;99.90;;;;;;5035670;28;20029;-50
2021/06/16 00:09:52;;;;;;;1.58;0.90;;;11.20;99.90;;;;;;5034836;28;20029;-43
2021/06/16 00:12:17;;;;;;;1.50;0.98;;;11.10;99.90;;;;;;5035443;28;20104;-43
2021/06/16 00:14:43;;;;;;;1.15;0.90;;;11.00;99.90;;;;;;5035459;28;20056;-45
2021/06/16 00:17:09;;;;;;;2.95;1.25;;;10.90;99.90;;;;;;5035238;28;20527;-43
2021/06/16 00:19:35;;;;;;;1.40;1.02;;;10.90;99.90;;;;;;5035409;28;20503;-47
2021/06/16 00:22:01;;;;;;;3.65;1.00;;;10.90;99.90;;;;;;5035393;28;20064;-49
2021/06/16 00:24:27;;;;;;;3.33;1.20;;;10.80;99.90;;;;;;5035426;28;20068;-47
2021/06/16 00:26:53;;;;;;;2.35;1.27;;;10.80;99.90;;;;;;5043828;28;20033;-45
2021/06/16 00:29:18;;;;;;;2.90;1.45;;;10.80;99.90;;;;;;5055282;28;20025;-51
2021/06/16 00:31:44;;;;;;;2.25;1.20;;;10.80;99.90;;;;;;5055104;28;20025;-47
2021/06/16 00:34:10;;;;;;;3.15;1.30;;;10.80;99.90;;;;;;5054047;28;20104;-43
2021/06/16 00:36:35;;;;;;;3.40;1.23;;;10.70;99.90;;;;;;5040013;28;20068;-45
2021/06/16 00:39:04;;;;;;;4.97;1.13;;;10.70;99.90;;;;;;5035130;28;20068;-47
2021/06/16 00:41:29;;;;;;;2.22;1.20;;;10.70;99.90;;;;;;5034193;28;20487;-45
2021/06/16 00:43:55;;;;;;;2.60;1.02;;;10.60;99.90;;;;;;5034969;28;20041;-45
2021/06/16 00:46:20;;;;;;;3.00;1.20;;;10.60;99.90;;;;;;5035041;28;20029;-50
2021/06/16 00:48:46;;;;;;;2.83;1.30;;;10.50;99.90;;;;;;5035039;28;20025;-47
2021/06/16 00:51:11;;;;;;;2.60;1.50;;;10.50;99.90;;;;;;5034807;28;20029;-44
2021/06/16 00:53:37;;;;;;;2.50;0.93;;;10.40;99.90;;;;;;5034831;28;20038;-44
2021/06/16 00:56:02;;;;;;;1.42;1.15;;;10.40;99.90;;;;;;5033858;28;20029;-48
2021/06/16 00:58:28;;;;;;;2.42;1.40;;;10.40;99.90;;;;;;5034724;28;20029;-45
2021/06/16 01:01:08;;;;;;;1.77;1.25;;;10.40;99.90;;;;;;5034457;28;20085;-46
2021/06/16 01:03:54;;;;;;;3.70;1.20;;;10.50;99.90;;;;;;5034768;28;20112;-46
2021/06/16 01:06:26;;;;;;;2.50;1.40;;;10.40;99.90;;;;;;5034517;28;20499;-48
2021/06/16 01:09:00;;;;;;;1.15;1.00;;;10.40;99.90;;;;;;5034494;28;20072;-46
2021/06/16 01:11:28;;;;;;;3.10;1.15;;;10.40;99.90;;;;;;5033607;28;20026;-45
2021/06/16 01:13:57;;;;;;;3.42;1.35;;;10.30;99.90;;;;;;5034353;28;20045;-45
2021/06/16 01:16:50;;;;;;;3.30;1.08;;;10.30;99.90;;;;;;5034388;28;20037;-43
2021/06/16 01:19:48;;;;;;;2.08;1.10;;;10.20;99.90;;;;;;5034410;28;20040;-48
2021/06/16 01:22:39;;;;;;;4.32;1.05;;;10.20;99.90;;;;;;5034192;28;20025;-46
2021/06/16 01:25:08;;;;;;;1.30;1.20;;;10.20;99.90;;;;;;5033471;28;20032;-44
2021/06/16 01:27:35;;;;;;;3.22;1.40;;;10.10;99.90;;;;;;5033948;28;20589;-44
2021/06/16 01:30:02;;;;;;;1.55;1.13;;;10.10;99.90;;;;;;5034592;28;20428;-46
2021/06/16 01:32:28;;;;;;;0.93;0.90;;;10.00;99.90;;;;;;5034158;28;20037;-44
2021/06/16 01:34:53;;;;;;;1.73;1.40;;;9.90;99.90;;;;;;5034301;28;20049;-44
2021/06/16 01:37:20;;;;;;;2.00;1.23;;;9.90;99.90;;;;;;5033985;28;20421;-49
2021/06/16 01:39:46;;;;;;;1.98;1.40;;;9.90;99.90;;;;;;5033157;28;20022;-44
2021/06/16 01:42:18;;;;;;;1.88;1.40;;;9.90;99.90;;;;;;5033799;28;20037;-45
2021/06/16 01:44:46;;;;;;;2.58;1.40;;;9.80;99.90;;;;;;5033993;28;20029;-43
2021/06/16 01:47:13;;;;;;;3.05;1.05;;;9.80;99.90;;;;;;5033895;28;20057;-45
2021/06/16 01:49:40;;;;;;;1.58;1.00;;;9.80;99.90;;;;;;5033796;28;20529;-45
2021/06/16 01:52:06;;;;;;;2.53;1.27;;;9.70;99.90;;;;;;5033671;28;20389;-46
2021/06/16 01:54:32;;;;;;;1.83;1.15;;;9.70;99.90;;;;;;5033116;28;20025;-46
2021/06/16 01:57:00;;;;;;;3.63;1.42;;;9.70;99.90;;;;;;5033469;28;20045;-48
2021/06/16 01:59:26;;;;;;;2.58;0.98;;;9.60;99.90;;;;;;5032415;28;20032;-44
2021/06/16 02:01:52;;;;;;;1.20;1.05;;;9.60;99.90;;;;;;5033523;28;20021;-46
2021/06/16 02:04:19;;;;;;;1.85;1.25;;;9.50;99.90;;;;;;5033711;28;20029;-47
2021/06/16 02:06:48;;;;;;;1.63;1.20;;;9.50;99.90;;;;;;5033321;28;20037;-45
2021/06/16 02:09:16;;;;;;;2.58;1.33;;;9.50;99.90;;;;;;5033334;28;20033;-44
2021/06/16 02:11:43;;;;;;;1.90;1.42;;;9.40;99.90;;;;;;5032109;28;20465;-44
2021/06/16 02:14:16;;;;;;;4.55;1.40;;;9.40;99.90;;;;;;5033287;28;20151;-49
2021/06/16 02:16:54;;;;;;;2.65;1.40;;;9.40;99.90;;;;;;5033188;28;20025;-49
2021/06/16 02:19:26;;;;;;;2.13;1.10;;;9.30;99.90;;;;;;5033347;28;20021;-45
2021/06/16 02:21:52;;;;;;;3.35;1.27;;;9.30;99.90;;;;;;5032924;28;20121;-45
2021/06/16 02:24:20;;;;;;;1.88;0.90;;;9.30;99.90;;;;;;5033334;28;20109;-49
2021/06/16 02:26:45;;;;;;;4.82;1.52;;;9.30;99.90;;;;;;5032053;28;20026;-44
2021/06/16 02:29:11;;;;;;;1.75;1.00;;;9.30;99.90;;;;;;5033131;28;20048;-49
2021/06/16 02:31:39;;;;;;;1.98;1.38;;;9.30;99.90;;;;;;5033041;28;20079;-47
2021/06/16 02:34:05;;;;;;;2.30;1.20;;;9.30;99.90;;;;;;5031767;28;20099;-45
2021/06/16 02:36:36;;;;;;;1.98;1.40;;;9.20;99.90;;;;;;5032670;28;20029;-50
2021/06/16 02:39:07;;;;;;;4.68;1.10;;;9.20;99.90;;;;;;5032783;28;20142;-46
2021/06/16 02:41:32;;;;;;;1.42;1.00;;;9.20;99.90;;;;;;5031948;28;20025;-47
2021/06/16 02:43:58;;;;;;;1.23;1.13;;;9.20;99.90;;;;;;5032918;28;20083;-45
2021/06/16 02:46:26;;;;;;;2.33;1.60;;;9.20;99.90;;;;;;5032788;28;20041;-46
2021/06/16 02:48:52;;;;;;;2.28;1.27;;;9.20;99.90;;;;;;5032674;28;20116;-46
2021/06/16 02:51:18;;;;;;;3.35;1.15;;;9.20;99.90;;;;;;5032776;28;20025;-44
2021/06/16 02:53:45;;;;;;;2.92;1.27;;;9.20;99.90;;;;;;5032582;28;20042;-45
2021/06/16 02:56:11;;;;;;;2.05;1.20;;;9.20;99.90;;;;;;5031862;28;20029;-44
2021/06/16 02:58:43;;;;;;;2.00;1.20;;;9.20;99.90;;;;;;5032633;28;20029;-45
2021/06/16 03:01:14;;;;;;;2.47;1.13;;;9.20;99.90;;;;;;5032091;28;20485;-47
2021/06/16 03:03:43;;;;;;;5.47;1.73;;;9.30;99.90;;;;;;5032481;28;20034;-44
2021/06/16 03:06:10;;;;;;;3.22;1.40;;;9.30;99.90;;;;;;5032692;28;20029;-45
2021/06/16 03:08:37;;;;;;;3.72;1.30;;;9.40;99.90;;;;;;5032422;28;20071;-48
2021/06/16 03:11:04;;;;;;;1.25;1.10;;;9.40;99.90;;;;;;5031513;28;20469;-45
2021/06/16 03:13:31;;;;;;;3.00;1.15;;;9.40;99.90;;;;;;5032543;28;20469;-46
2021/06/16 03:15:57;;;;;;;2.78;1.55;;;9.50;99.90;;;;;;5032324;28;20033;-44
2021/06/16 03:18:23;;;;;;;1.50;1.17;;;9.50;99.90;;;;;;5032440;28;20034;-49
2021/06/16 03:20:53;;;;;;;1.75;1.40;;;9.60;99.90;;;;;;5032433;28;20029;-44
2021/06/16 03:23:19;;;;;;;1.75;1.30;;;9.70;99.90;;;;;;5032276;28;20032;-43
2021/06/16 03:25:46;;;;;;;1.45;1.25;;;9.80;99.90;;;;;;5031458;28;20030;-46
2021/06/16 03:28:12;;;;;;;2.22;1.35;;;9.90;99.90;;;;;;5032299;28;20033;-49
2021/06/16 03:30:39;;;;;;;5.03;1.50;;;9.90;99.90;;;;;;5032325;28;20212;-49
2021/06/16 03:33:06;;;;;;;1.52;1.10;;;10.00;99.90;;;;;;5032289;28;20100;-47
2021/06/16 03:35:31;;;;;;;3.13;1.42;;;10.10;99.90;;;;;;5032284;28;20053;-45
2021/06/16 03:38:00;;;;;;;1.25;1.10;;;10.30;99.90;;;;;;5032073;28;20512;-47
2021/06/16 03:40:27;;;;;;;1.40;1.10;;;10.70;99.90;;;;;;5031355;28;20025;-47
2021/06/16 03:42:56;;;;;;;2.20;1.42;;;11.90;99.90;;;;;;5030762;28;20424;-48
2021/06/16 03:45:22;;;;;;;2.05;0.85;;;13.40;99.90;;;;;;5032194;28;20079;-49
2021/06/16 03:47:52;;;;;;;1.77;1.00;;;14.70;99.90;;;;;;5032046;28;20051;-45
2021/06/16 03:50:21;;;;;;;2.50;1.30;;;16.00;98.30;;;;;;5032307;28;20451;-46
2021/06/16 03:52:47;;;;;;;1.70;1.10;;;17.10;92.20;;;;;;5032163;28;20033;-46
2021/06/16 03:55:15;;;;;;;1.83;1.08;;;18.00;88.00;;;;;;5030981;28;20040;-50
2021/06/16 03:57:41;;;;;;;3.22;0.77;;;19.00;84.30;;;;;;5032114;28;20053;-47
2021/06/16 04:00:08;;;;;;;1.25;0.80;;;19.70;80.00;;;;;;5031887;28;20042;-47
2021/06/16 04:02:34;;;;;;;3.90;0.85;;;19.90;79.10;;;;;;5032071;28;20089;-45
2021/06/16 04:05:02;;;;;;;1.83;0.98;;;20.60;77.30;;;;;;5031949;28;20025;-49
2021/06/16 04:07:29;;;;;;;2.20;0.77;;;21.00;74.60;;;;;;5031991;28;20029;-44
2021/06/16 04:09:56;;;;;;;2.40;1.08;;;20.80;73.70;;;;;;5030961;28;20065;-46
2021/06/16 04:12:22;;;;;;;2.40;1.38;;;21.10;73.10;;;;;;5033473;28;20053;-44
2021/06/16 04:14:48;;;;;;;1.70;0.77;;;21.80;70.00;;;;;;5035660;28;20029;-52
2021/06/16 04:17:17;;;;;;;2.35;1.17;;;22.50;68.70;;;;;;5035369;28;20543;-49
2021/06/16 04:19:42;;;;;;;1.85;0.90;;;23.40;66.50;;;;;;5035642;28;20412;-47
2021/06/16 04:22:08;;;;;;;2.50;1.00;;;24.10;64.70;;;;;;5035397;28;20032;-49
2021/06/16 04:24:33;;;;;;;2.70;1.35;;;24.40;64.00;;;;;;5034344;28;20397;-45
2021/06/16 04:26:59;;;;;;;1.63;1.15;;;24.70;62.00;;;;;;5035207;28;20036;-47
2021/06/16 04:29:25;;;;;;;2.05;1.00;;;24.40;59.70;;;;;;5035094;28;20025;-46
2021/06/16 04:31:51;;;;;;;2.47;0.85;;;24.30;61.10;;;;;;5035313;28;20041;-47
2021/06/16 04:34:17;;;;;;;2.83;0.98;;;24.20;61.60;;;;;;5035184;28;20384;-46
2021/06/16 04:36:42;;;;;;;1.63;1.10;;;24.20;60.70;;;;;;5034926;28;20067;-49
2021/06/16 04:39:08;;;;;;;1.02;0.80;;;24.40;59.60;;;;;;5034906;28;20033;-47
2021/06/16 04:41:34;;;;;;;1.52;0.90;;;24.60;58.20;;;;;;5034162;28;20036;-47
2021/06/16 04:44:00;;;;;;;2.13;0.90;;;24.90;57.20;;;;;;5034991;28;20108;-45
2021/06/16 04:46:26;;;;;;;1.90;0.80;;;24.70;56.90;;;;;;5035175;28;20459;-45
2021/06/16 04:48:52;;;;;;;2.65;1.20;;;24.80;55.40;;;;;;5034911;28;20034;-52
2021/06/16 04:51:17;;;;;;;2.25;1.27;;;25.00;55.00;;;;;;5031428;28;20022;-50
2021/06/16 04:53:43;;;;;;;3.20;1.10;;;25.00;54.80;;;;;;5034477;28;20029;-46
2021/06/16 04:56:08;;;;;;;3.55;0.93;;;25.20;55.00;;;;;;5031193;28;20080;-48
2021/06/16 04:58:34;;;;;;;2.35;0.95;;;25.50;53.60;;;;;;5034440;28;20033;-45
2021/06/16 05:01:00;;;;;;;3.97;0.90;;;25.50;53.50;;;;;;5034226;28;20049;-47
2021/06/16 05:03:26;;;;;;;2.25;0.80;;;25.00;53.40;;;;;;5034815;28;20397;-47
2021/06/16 05:05:52;;;;;;;4.60;1.30;;;24.90;53.90;;;;;;5034448;28;20025;-44
2021/06/16 05:08:17;;;;;;;2.97;1.40;;;24.90;54.10;;;;;;5034205;28;20036;-51
2021/06/16 05:10:43;;;;;;;1.30;1.20;;;25.00;53.70;;;;;;5033360;28;20108;-47
2021/06/16 05:13:08;;;;;;;2.15;0.95;;;25.10;54.20;;;;;;5034275;28;20052;-46
2021/06/16 05:15:34;;;;;;;4.28;1.10;;;25.40;54.30;;;;;;5034377;28;20439;-46
2021/06/16 05:17:59;;;;;;;2.22;1.10;;;25.90;53.20;;;;;;5034354;28;20067;-45
2021/06/16 05:20:26;;;;;;;1.02;0.90;;;26.50;52.10;;;;;;5034414;28;20469;-46
2021/06/16 05:22:53;;;;;;;1.10;1.02;;;27.00;51.80;;;;;;5033799;28;20021;-45
2021/06/16 05:25:18;;;;;;;1.25;0.75;;;27.60;51.40;;;;;;5033238;28;20049;-50
2021/06/16 05:27:44;;;;;;;0.70;0.70;;;28.20;50.90;;;;;;5050455;28;20400;-47
2021/06/16 05:30:11;;;;;;;3.25;0.98;;;28.60;50.70;;;;;;5054012;28;20384;-49
2021/06/16 05:32:36;;;;;;;2.33;1.10;;;28.80;49.30;;;;;;5054216;28;20029;-44
2021/06/16 05:35:04;;;;;;;2.90;0.90;;;29.30;48.30;;;;;;5052614;28;20040;-48
2021/06/16 05:37:29;;;;;;;2.50;1.10;;;29.50;47.50;;;;;;5034031;28;20373;-45
2021/06/16 05:39:55;;;;;;;3.08;0.90;;;29.30;47.10;;;;;;5032939;28;20024;-44
2021/06/16 05:42:20;;;;;;;0.73;0.70;;;29.60;46.70;;;;;;5033791;28;20117;-47
2021/06/16 05:44:46;;;;;;;2.22;0.70;;;29.90;45.50;;;;;;5033922;28;20026;-49
2021/06/16 05:47:11;;;;;;;2.17;1.10;;;30.30;44.40;;;;;;5033786;28;20030;-48
2021/06/16 05:49:37;;;;;;;1.70;0.80;;;30.60;44.90;;;;;;5033808;28;20030;-46
2021/06/16 05:52:03;;;;;;;2.30;0.80;;;30.40;43.90;;;;;;5033704;28;20025;-47
2021/06/16 05:54:28;;;;;;;2.85;1.05;;;30.20;43.50;;;;;;5032671;28;20477;-46
2021/06/16 05:56:54;;;;;;;0.80;0.80;;;30.10;43.00;;;;;;5033520;28;20209;-47
2021/06/16 05:59:19;;;;;;;2.17;1.20;;;30.80;44.00;;;;;;5033484;28;20469;-47
2021/06/16 06:01:45;;;;;;;1.45;0.63;;;30.90;42.70;;;;;;5033358;28;20205;-47
2021/06/16 06:04:10;;;;;;;2.03;0.88;;;31.10;43.00;;;;;;5033463;28;20037;-46
2021/06/16 06:06:36;;;;;;;3.38;0.93;;;31.80;42.70;;;;;;5033666;28;20033;-45
2021/06/16 06:09:04;;;;;;;1.30;0.90;;;32.90;41.70;;;;;;5033339;28;20412;-48
2021/06/16 06:11:30;;;;;;;5.80;1.02;;;33.00;40.90;;;;;;5032281;28;20038;-46
2021/06/16 06:13:55;;;;;;;0.88;0.70;;;33.30;40.20;;;;;;5033226;28;20051;-50
2021/06/16 06:16:21;;;;;;;2.42;0.75;;;33.80;40.20;;;;;;5033228;28;20052;-50
2021/06/16 06:18:47;;;;;;;1.50;1.00;;;34.20;39.40;;;;;;5033275;28;20124;-47
2021/06/16 06:21:12;;;;;;;1.30;0.90;;;34.20;38.70;;;;;;5033244;28;20025;-47
2021/06/16 06:23:38;;;;;;;1.48;0.77;;;33.70;37.90;;;;;;5033162;28;20123;-45
2021/06/16 06:26:04;;;;;;;1.95;0.90;;;32.80;38.10;;;;;;5034604;28;20136;-48
2021/06/16 06:28:29;;;;;;;2.15;0.77;;;32.40;38.50;;;;;;5051641;28;20029;-47
2021/06/16 06:30:55;;;;;;;1.02;0.80;;;32.30;38.40;;;;;;5053132;28;20049;-49
2021/06/16 06:33:20;;;;;;;2.80;0.98;;;32.30;37.90;;;;;;5052694;28;20477;-47
2021/06/16 06:35:46;;;;;;;2.05;0.93;;;32.60;38.30;;;;;;5044982;28;20040;-50
2021/06/16 06:38:13;;;;;;;1.70;0.90;;;33.00;38.40;;;;;;5032767;28;20041;-47
2021/06/16 06:40:40;;;;;;;1.50;0.80;;;33.60;37.80;;;;;;5031924;28;20452;-47
2021/06/16 06:43:05;;;;;;;3.03;1.27;;;34.20;37.40;;;;;;5032856;28;20503;-47
2021/06/16 06:45:31;;;;;;;1.35;0.80;;;34.70;37.30;;;;;;5032435;28;20104;-46
2021/06/16 06:47:56;;;;;;;4.18;1.20;;;35.20;36.60;;;;;;5032878;28;20473;-45
2021/06/16 06:50:22;;;;;;;3.08;0.93;;;35.40;36.60;;;;;;5032658;28;20021;-48
2021/06/16 06:52:48;;;;;;;2.83;1.00;;;35.00;35.50;;;;;;5032875;28;20017;-46
2021/06/16 06:55:15;;;;;;;1.58;0.80;;;34.40;36.40;;;;;;5031334;28;20357;-47
2021/06/16 06:57:41;;;;;;;1.95;0.70;;;34.50;36.50;;;;;;5032615;28;20014;-48
2021/06/16 07:00:08;;;;;;;2.78;0.93;;;34.40;36.30;;;;;;5032272;28;20045;-46
2021/06/16 07:02:34;;;;;;;3.45;0.80;;;34.90;36.60;;;;;;5032685;28;20053;-46
2021/06/16 07:04:59;;;;;;;2.75;0.70;;;35.20;35.90;;;;;;5032594;28;20062;-45
2021/06/16 07:07:25;;;;;;;1.80;0.95;;;35.40;35.60;;;;;;5032521;28;20036;-47
2021/06/16 07:09:51;;;;;;;1.23;0.80;;;35.50;35.70;;;;;;5031476;28;20486;-50
2021/06/16 07:12:17;;;;;;;1.60;0.90;;;36.30;35.50;;;;;;5032386;28;20033;-51
2021/06/16 07:14:43;;;;;;;1.40;0.90;;;37.10;34.90;;;;;;5032158;28;20078;-50
2021/06/16 07:17:08;;;;;;;1.17;0.88;;;37.50;34.30;;;;;;5032400;28;20492;-48
2021/06/16 07:19:34;;;;;;;0.85;0.52;;;36.90;34.40;;;;;;5032330;28;20037;-46
2021/06/16 07:22:00;;;;;;;1.52;0.80;;;36.50;34.20;;;;;;5032563;28;20029;-48
2021/06/16 07:24:26;;;;;;;3.28;1.10;;;35.80;34.40;;;;;;5031037;28;20121;-46
2021/06/16 07:26:52;;;;;;;1.63;0.88;;;36.00;34.90;;;;;;5032378;28;20108;-48
2021/06/16 07:29:18;;;;;;;1.33;0.57;;;36.50;34.80;;;;;;5032040;28;20025;-46
2021/06/16 07:31:44;;;;;;;1.10;0.70;;;37.40;34.90;;;;;;5031607;28;20037;-48
2021/06/16 07:34:10;;;;;;;3.80;1.08;;;38.00;33.60;;;;;;5031922;28;20104;-56
2021/06/16 07:36:36;;;;;;;1.52;0.95;;;38.00;33.10;;;;;;5032242;28;20112;-54
2021/06/16 07:39:02;;;;;;;1.67;0.70;;;37.70;33.00;;;;;;5032153;28;20038;-51
2021/06/16 07:41:28;;;;;;;1.38;0.70;;;37.30;33.60;;;;;;5031135;28;20041;-51
2021/06/16 07:43:53;;;;;;;2.45;0.80;;;37.90;33.20;;;;;;5032093;28;20041;-51
2021/06/16 07:46:19;;;;;;;1.88;1.00;;;38.30;33.10;;;;;;5033821;28;20472;-48
2021/06/16 07:48:44;;;;;;;1.52;0.85;;;38.10;32.60;;;;;;5036228;28;20527;-51
2021/06/16 07:51:10;;;;;;;2.95;0.70;;;38.40;32.80;;;;;;5035234;28;20029;-50
2021/06/16 07:53:35;;;;;;;2.13;0.90;;;38.60;32.60;;;;;;5035815;28;20468;-50
2021/06/16 07:56:01;;;;;;;2.40;0.95;;;38.90;32.60;;;;;;5034966;28;20029;-52
2021/06/16 07:58:27;;;;;;;1.83;0.80;;;39.00;32.80;;;;;;5035744;28;20033;-53
2021/06/16 08:00:53;;;;;;;1.88;0.77;;;38.60;32.30;;;;;;5035562;28;20060;-50
2021/06/16 08:03:18;;;;;;;1.83;1.00;;;38.40;31.90;;;;;;5035884;28;20028;-53
2021/06/16 08:05:44;;;;;;;1.98;0.70;;;37.80;32.70;;;;;;5035743;28;20037;-54
2021/06/16 08:08:09;;;;;;;1.33;0.73;;;37.30;33.10;;;;;;5035658;28;20064;-53
2021/06/16 08:10:35;;;;;;;2.47;1.02;;;37.40;33.20;;;;;;5034696;28;20447;-50
2021/06/16 08:13:00;;;;;;;1.38;0.80;;;37.20;33.30;;;;;;5035873;28;20025;-53
2021/06/16 08:15:27;;;;;;;2.80;0.95;;;37.70;32.80;;;;;;5035277;28;20041;-54
2021/06/16 08:17:52;;;;;;;1.08;0.70;;;37.70;32.90;;;;;;5035660;28;20021;-54
2021/06/16 08:20:18;;;;;;;3.25;0.95;;;37.80;32.90;;;;;;5035474;28;20426;-51
2021/06/16 08:22:44;;;;;;;1.90;0.77;;;37.60;32.50;;;;;;5035051;28;20421;-52
2021/06/16 08:25:11;;;;;;;2.50;0.90;;;37.10;33.20;;;;;;5034602;28;20040;-55
2021/06/16 08:27:38;;;;;;;1.33;1.00;;;37.70;33.30;;;;;;5050838;28;20048;-54
2021/06/16 08:30:05;;;;;;;3.22;1.15;;;37.80;32.80;;;;;;5055190;28;20047;-52
2021/06/16 08:32:31;;;;;;;2.38;1.02;;;37.90;33.20;;;;;;5055296;28;20036;-54
2021/06/16 08:34:56;;;;;;;1.00;0.80;;;38.00;33.00;;;;;;5054911;28;20021;-50
2021/06/16 08:37:22;;;;;;;2.58;0.82;;;38.20;32.70;;;;;;5034964;28;20025;-51
2021/06/16 08:39:47;;;;;;;1.80;0.90;;;38.10;32.80;;;;;;5034312;28;20032;-51
2021/06/16 08:42:13;;;;;;;3.17;1.00;;;38.20;33.00;;;;;;5035091;28;20602;-51
2021/06/16 08:44:39;;;;;;;1.25;0.73;;;38.20;32.70;;;;;;5035063;28;20574;-48
2021/06/16 08:47:05;;;;;;;2.08;1.05;;;38.70;32.80;;;;;;5034969;28;20025;-52
2021/06/16 08:49:31;;;;;;;2.78;0.80;;;38.40;32.10;;;;;;5034914;28;20069;-49
2021/06/16 08:51:57;;;;;;;2.05;0.90;;;38.10;32.90;;;;;;5034931;28;20049;-46
2021/06/16 08:54:23;;;;;;;1.10;0.70;;;37.60;32.90;;;;;;5033837;28;20461;-52
2021/06/16 08:56:49;;;;;;;2.45;1.10;;;38.20;32.90;;;;;;5034840;28;20040;-53
2021/06/16 08:59:14;;;;;;;1.48;0.68;;;38.00;32.50;;;;;;5034480;28;20306;-52
2021/06/16 09:01:40;;;;;;;1.27;0.70;;;37.80;32.80;;;;;;5034629;28;20056;-52
2021/06/16 09:04:05;;;;;;;2.63;1.05;;;37.90;32.80;;;;;;5034854;28;20029;-50
2021/06/16 09:06:31;;;;;;;1.23;0.80;;;38.00;32.60;;;;;;5034443;28;20052;-50
2021/06/16 09:09:06;;;;;;;2.30;0.90;;;37.70;32.40;;;;;;5034853;28;20037;-48
2021/06/16 09:11:44;;;;;;;1.20;0.90;;;37.80;32.90;;;;;;5033672;28;20056;-51
2021/06/16 09:14:14;;;;;;;3.05;1.00;;;38.30;31.90;;;;;;5034578;28;20049;-50
2021/06/16 09:16:41;;;;;;;2.05;0.98;;;37.80;31.70;;;;;;5034339;28;20530;-48
2021/06/16 09:19:24;;;;;;;2.28;1.10;;;37.50;32.50;;;;;;5034256;28;20033;-49
2021/06/16 09:22:03;;;;;;;2.88;0.88;;;37.40;31.90;;;;;;5034579;28;20072;-52
2021/06/16 09:24:43;;;;;;;3.60;1.20;;;37.70;32.60;;;;;;5033478;28;20057;-48
2021/06/16 09:27:09;;;;;;;2.22;1.23;;;37.50;32.50;;;;;;5045980;28;20431;-47
2021/06/16 09:29:35;;;;;;;2.92;1.00;;;37.50;32.90;;;;;;5053957;28;20025;-51
2021/06/16 09:32:03;;;;;;;3.97;1.13;;;37.40;32.80;;;;;;5053001;28;20021;-52
2021/06/16 09:34:30;;;;;;;2.88;1.08;;;37.40;32.60;;;;;;5053907;28;20025;-51
2021/06/16 09:36:57;;;;;;;3.65;1.17;;;37.20;32.70;;;;;;5035282;28;20024;-49
2021/06/16 09:39:26;;;;;;;1.27;0.73;;;37.20;33.30;;;;;;5033151;28;20022;-52
2021/06/16 09:41:55;;;;;;;1.90;0.98;;;36.90;32.70;;;;;;5034060;28;20032;-48
2021/06/16 09:44:42;;;;;;;1.50;0.90;;;36.50;32.80;;;;;;5033944;28;20025;-49
2021/06/16 09:47:15;;;;;;;2.90;1.10;;;36.70;32.60;;;;;;5033883;28;20421;-48
2021/06/16 09:50:06;;;;;;;2.10;0.80;;;36.90;32.70;;;;;;5033686;28;20053;-48
2021/06/16 09:52:38;;;;;;;2.20;0.93;;;36.70;32.60;;;;;;5033931;28;20038;-49
2021/06/16 09:55:06;;;;;;;2.33;1.00;;;36.40;32.70;;;;;;5032767;28;20540;-48
2021/06/16 09:57:33;;;;;;;2.03;1.25;;;35.40;34.00;;;;;;5033677;28;20509;-50
2021/06/16 10:00:02;;;;;;;3.47;1.15;;;34.20;34.10;;;;;;5033442;28;20049;-49
2021/06/16 10:02:30;;;;;;;1.95;1.00;;;32.80;35.00;;;;;;5033737;28;20025;-52
2021/06/16 10:05:00;;;;;;;1.45;0.95;;;31.80;36.60;;;;;;5033409;28;20029;-51
2021/06/16 10:07:34;;;;;;;1.85;0.98;;;30.80;36.90;;;;;;5033437;28;20039;-49
2021/06/16 10:10:09;;;;;;;2.83;0.77;;;30.30;37.60;;;;;;5032471;28;20030;-50
2021/06/16 10:12:37;;;;;;;1.63;0.75;;;29.70;39.00;;;;;;5033400;28;20028;-49
2021/06/16 10:15:09;;;;;;;2.45;0.98;;;29.00;38.40;;;;;;5033250;28;20025;-48
2021/06/16 10:17:36;;;;;;;1.77;1.00;;;28.80;38.50;;;;;;5032885;28;20075;-46
2021/06/16 10:20:02;;;;;;;2.55;1.00;;;28.50;39.00;;;;;;5033225;28;20041;-51
2021/06/16 10:22:28;;;;;;;3.13;1.02;;;28.20;39.70;;;;;;5033256;28;20029;-49
2021/06/16 10:24:54;;;;;;;3.42;0.95;;;27.80;40.80;;;;;;5032222;28;20039;-49
2021/06/16 10:27:38;;;;;;;2.47;1.10;;;27.50;40.90;;;;;;5046260;28;20053;-48
2021/06/16 10:30:13;;;;;;;2.22;1.00;;;27.30;41.10;;;;;;5052773;28;20178;-50
2021/06/16 10:32:44;;;;;;;1.63;0.80;;;26.90;41.60;;;;;;5052990;28;20099;-52
2021/06/16 10:35:24;;;;;;;4.28;1.20;;;26.80;41.60;;;;;;5050715;28;20028;-50
2021/06/16 10:38:01;;;;;;;4.00;1.00;;;26.60;42.40;;;;;;5033065;28;20022;-45
2021/06/16 10:40:29;;;;;;;4.32;1.10;;;26.40;43.30;;;;;;5031599;28;20060;-54
2021/06/16 10:43:04;;;;;;;2.83;1.02;;;26.20;43.50;;;;;;5032929;28;20425;-50
2021/06/16 10:45:47;;;;;;;2.05;1.20;;;26.00;43.90;;;;;;5032800;28;20025;-49
2021/06/16 10:48:15;;;;;;;1.40;0.77;;;25.90;43.80;;;;;;5032761;28;20034;-48
2021/06/16 10:50:51;;;;;;;1.70;1.20;;;26.10;43.50;;;;;;5032641;28;20025;-49
2021/06/16 10:53:18;;;;;;;;;;;26.20;43.30;;;;;;5033285;28;20099;-49
2021/06/16 10:55:56;;;;;;;2.45;1.20;;;26.20;44.90;;;;;;5031545;28;19913;-50
2021/06/16 10:58:29;;;;;;;2.03;1.20;;;25.90;44.70;;;;;;5032818;28;20026;-46
2021/06/16 11:01:18;;;;;;;3.13;1.10;;;25.70;45.00;;;;;;5032265;28;20103;-49
2021/06/16 11:03:46;;;;;;;7.65;1.75;;;25.60;45.60;;;;;;5032359;28;20056;-50
2021/06/16 11:06:39;;;;;;;3.15;1.00;;;25.60;45.20;;;;;;5032596;28;20049;-51
2021/06/16 11:09:06;;;;;;;1.48;0.85;;;25.60;46.00;;;;;;5032591;28;20025;-48
2021/06/16 11:11:49;;;;;;;2.78;1.42;;;25.50;45.70;;;;;;5031545;28;20022;-49
2021/06/16 11:14:33;;;;;;;2.38;0.98;;;25.50;47.00;;;;;;5032446;28;20128;-49
2021/06/16 11:17:06;;;;;;;2.00;1.00;;;25.50;46.30;;;;;;5032339;28;20380;-49
2021/06/16 11:19:35;;;;;;;2.75;1.30;;;25.60;45.90;;;;;;5032404;28;20116;-48
2021/06/16 11:22:25;;;;;;;3.42;1.05;;;25.70;45.60;;;;;;5037661;28;20025;-48
2021/06/16 11:25:09;;;;;;;1.85;1.13;;;25.70;45.90;;;;;;5038067;28;20030;-52
2021/06/16 11:27:53;;;;;;;5.43;1.65;;;25.60;46.00;;;;;;5054150;28;20025;-49
2021/06/16 11:30:38;;;;;;;1.73;1.08;;;25.30;46.30;;;;;;5058756;28;20029;-50
2021/06/16 11:33:12;;;;;;;3.47;0.95;;;25.20;46.90;;;;;;5058660;28;20028;-51
2021/06/16 11:35:50;;;;;;;2.50;0.85;;;25.30;46.60;;;;;;5052489;28;20030;-49
2021/06/16 11:38:18;;;;;;;1.92;1.30;;;25.30;47.20;;;;;;5038877;28;20025;-51
2021/06/16 11:40:54;;;;;;;2.85;1.55;;;25.30;47.60;;;;;;5034395;28;20055;-54
2021/06/16 11:43:40;;;;;;;1.40;1.30;;;25.20;47.90;;;;;;5038760;28;20029;-51
2021/06/16 11:46:18;;;;;;;2.38;1.08;;;25.40;48.00;;;;;;5038616;28;20025;-49
2021/06/16 11:48:47;;;;;;;4.22;1.08;;;25.40;47.00;;;;;;5038397;28;20025;-50
2021/06/16 11:51:30;;;;;;;1.17;0.80;;;25.40;46.70;;;;;;5038422;28;20033;-48
2021/06/16 11:54:19;;;;;;;2.00;1.02;;;25.40;46.70;;;;;;5037877;28;20049;-47
2021/06/16 11:56:46;;;;;;;2.47;1.00;;;25.40;46.70;;;;;;5038431;28;20033;-51
2021/06/16 11:59:12;;;;;;;2.47;0.93;;;25.40;46.70;;;;;;5038715;28;20030;-47
2021/06/16 12:01:37;;;;;;;2.05;0.98;;;25.50;46.70;;;;;;5038462;28;20061;-47
2021/06/16 12:04:03;;;;;;;3.42;1.17;;;25.40;46.90;;;;;;5038273;28;20049;-51
2021/06/16 12:06:29;;;;;;;1.45;1.08;;;25.40;47.40;;;;;;5038476;28;20033;-47
2021/06/16 12:08:59;;;;;;;4.93;1.40;;;25.30;47.10;;;;;;5038440;28;20039;-53
2021/06/16 12:11:28;;;;;;;2.45;1.25;;;25.20;47.70;;;;;;5037551;28;20489;-51
2021/06/16 12:14:02;;;;;;;3.83;1.25;;;25.20;47.80;;;;;;5037256;28;20103;-53
2021/06/16 12:16:35;;;;;;;2.47;1.00;;;25.10;47.70;;;;;;5038200;28;20044;-52
2021/06/16 12:19:18;;;;;;;1.35;0.90;;;25.10;47.70;;;;;;5038518;28;20485;-53
2021/06/16 12:21:58;;;;;;;2.97;1.67;;;25.00;47.60;;;;;;5038195;28;20030;-53
2021/06/16 12:24:27;;;;;;;2.60;1.42;;;25.10;47.70;;;;;;5037745;28;20021;-52
2021/06/16 12:27:22;;;;;;;1.38;1.00;;;25.10;47.80;;;;;;5047430;28;20102;-51
2021/06/16 12:29:54;;;;;;;2.45;1.20;;;25.10;48.50;;;;;;5057793;28;20125;-50
2021/06/16 12:35:08;;;;;;;5.65;1.60;;;25.30;48.00;;;;;;5054421;28;20066;-46
2021/06/16 12:37:49;;;;;;;2.97;1.70;;;25.30;47.50;;;;;;5035148;28;20618;-51
2021/06/16 12:40:16;;;;;;;2.90;1.20;;;25.30;48.20;;;;;;5034205;28;20048;-47
2021/06/16 12:42:47;;;;;;;4.38;1.27;;;25.30;47.70;;;;;;5034964;28;20389;-51
2021/06/16 12:45:33;;;;;;;4.00;1.50;;;25.40;48.70;;;;;;5035193;28;20025;-48
2021/06/16 12:48:20;;;;;;;2.47;1.40;;;25.40;47.70;;;;;;5034866;28;20057;-50
2021/06/16 12:51:01;;;;;;;2.42;1.23;;;25.40;48.00;;;;;;5034873;28;20424;-53
2021/06/16 12:53:28;;;;;;;3.15;1.25;;;25.30;48.60;;;;;;5035274;28;20377;-52
2021/06/16 12:56:01;;;;;;;2.80;1.20;;;25.30;47.80;;;;;;5033703;28;20044;-51
2021/06/16 12:58:27;;;;;;;2.13;1.40;;;25.20;47.70;;;;;;5034535;28;20017;-49